sensor_id;sensor_type;location;lat;lon;timestamp;pressure;altitude;pressure_sealevel;temperature;humidity
3428;BME280;1727;42.624;23.406;2023-02-11T00:00:57;96542.31;;;-1.97;67.94
3428;BME280;1727;42.624;23.406;2023-02-11T00:03:24;96544.91;;;-2.00;67.11
3428;BME280;1727;42.624;23.406;2023-02-11T00:05:58;96538.09;;;-2.07;67.40
3428;BME280;1727;42.624;23.406;2023-02-11T00:08:25;96540.69;;;-2.08;67.42
3428;BME280;1727;42.624;23.406;2023-02-11T00:10:52;96540.69;;;-2.10;67.25
3428;BME280;1727;42.624;23.406;2023-02-11T00:13:21;96543.28;;;-2.10;67.13
3428;BME280;1727;42.624;23.406;2023-02-11T00:15:48;96534.72;;;-2.12;67.02
3428;BME280;1727;42.624;23.406;2023-02-11T00:18:15;96540.72;;;-2.13;67.37
3428;BME280;1727;42.624;23.406;2023-02-11T00:20:42;96540.81;;;-2.21;67.66
3428;BME280;1727;42.624;23.406;2023-02-11T00:23:09;96545.06;;;-2.18;67.81
3428;BME280;1727;42.624;23.406;2023-02-11T00:25:39;96540.81;;;-2.21;68.83
3428;BME280;1727;42.624;23.406;2023-02-11T00:28:06;96538.25;;;-2.22;68.38
3428;BME280;1727;42.624;23.406;2023-02-11T00:30:35;96540.84;;;-2.24;68.58
3428;BME280;1727;42.624;23.406;2023-02-11T00:33:02;96542.56;;;-2.24;67.94
3428;BME280;1727;42.624;23.406;2023-02-11T00:35:29;96530.63;;;-2.30;68.22
3428;BME280;1727;42.624;23.406;2023-02-11T00:37:56;96541.75;;;-2.29;68.40
3428;BME280;1727;42.624;23.406;2023-02-11T00:40:23;96540.09;;;-2.39;68.63
3428;BME280;1727;42.624;23.406;2023-02-11T00:42:50;96538.38;;;-2.40;68.73
3428;BME280;1727;42.624;23.406;2023-02-11T00:45:16;96540.09;;;-2.41;68.25
3428;BME280;1727;42.624;23.406;2023-02-11T00:47:46;96544.38;;;-2.40;68.65
3428;BME280;1727;42.624;23.406;2023-02-11T00:50:13;96533.28;;;-2.43;68.28
3428;BME280;1727;42.624;23.406;2023-02-11T00:52:40;96531.53;;;-2.41;68.28
3428;BME280;1727;42.624;23.406;2023-02-11T00:55:07;96528.16;;;-2.46;68.03
3428;BME280;1727;42.624;23.406;2023-02-11T00:57:34;96529.03;;;-2.46;68.04
3428;BME280;1727;42.624;23.406;2023-02-11T01:00:01;96520.50;;;-2.51;68.04
3428;BME280;1727;42.624;23.406;2023-02-11T01:02:28;96526.53;;;-2.57;67.96
3428;BME280;1727;42.624;23.406;2023-02-11T01:04:56;96518.91;;;-2.67;68.59
3428;BME280;1727;42.624;23.406;2023-02-11T01:07:24;96525.78;;;-2.72;68.88
3428;BME280;1727;42.624;23.406;2023-02-11T01:09:51;96518.09;;;-2.74;68.81
3428;BME280;1727;42.624;23.406;2023-02-11T01:12:18;96522.41;;;-2.77;69.34
3428;BME280;1727;42.624;23.406;2023-02-11T01:14:45;96518.16;;;-2.82;69.25
3428;BME280;1727;42.624;23.406;2023-02-11T01:17:11;96509.63;;;-2.85;69.35
3428;BME280;1727;42.624;23.406;2023-02-11T01:19:38;96518.19;;;-2.91;69.35
3428;BME280;1727;42.624;23.406;2023-02-11T01:22:07;96513.06;;;-2.88;69.54
3428;BME280;1727;42.624;23.406;2023-02-11T01:24:33;96504.47;;;-2.82;69.90
3428;BME280;1727;42.624;23.406;2023-02-11T01:27:00;96511.25;;;-2.76;69.78
3428;BME280;1727;42.624;23.406;2023-02-11T01:29:27;96513.78;;;-2.72;69.47
3428;BME280;1727;42.624;23.406;2023-02-11T01:31:54;96513.81;;;-2.75;69.74
3428;BME280;1727;42.624;23.406;2023-02-11T01:34:21;96519.78;;;-2.71;69.29
3428;BME280;1727;42.624;23.406;2023-02-11T01:36:47;96508.66;;;-2.73;70.05
3428;BME280;1727;42.624;23.406;2023-02-11T01:39:15;96513.78;;;-2.72;69.71
3428;BME280;1727;42.624;23.406;2023-02-11T01:41:42;96512.06;;;-2.71;69.79
3428;BME280;1727;42.624;23.406;2023-02-11T01:44:27;96503.53;;;-2.72;69.47
3428;BME280;1727;42.624;23.406;2023-02-11T01:46:54;96511.22;;;-2.72;69.91
3428;BME280;1727;42.624;23.406;2023-02-11T01:49:24;96507.81;;;-2.72;69.49
3428;BME280;1727;42.624;23.406;2023-02-11T01:51:55;96506.09;;;-2.73;68.86
3428;BME280;1727;42.624;23.406;2023-02-11T01:54:28;96513.78;;;-2.69;68.52
3428;BME280;1727;42.624;23.406;2023-02-11T01:57:15;96508.63;;;-2.67;68.44
3428;BME280;1727;42.624;23.406;2023-02-11T02:00:07;96508.63;;;-2.69;68.53
3428;BME280;1727;42.624;23.406;2023-02-11T02:02:39;96506.94;;;-2.71;69.22
3428;BME280;1727;42.624;23.406;2023-02-11T02:05:16;96506.09;;;-2.72;68.80
3428;BME280;1727;42.624;23.406;2023-02-11T02:07:49;96510.38;;;-2.72;69.21
3428;BME280;1727;42.624;23.406;2023-02-11T02:10:22;96501.84;;;-2.77;68.56
3428;BME280;1727;42.624;23.406;2023-02-11T02:12:50;96503.63;;;-2.86;68.96
3428;BME280;1727;42.624;23.406;2023-02-11T02:15:23;96499.41;;;-2.96;68.98
3428;BME280;1727;42.624;23.406;2023-02-11T02:17:56;96502.00;;;-3.00;69.42
3428;BME280;1727;42.624;23.406;2023-02-11T02:23:26;96505.50;;;-3.10;70.63
3428;BME280;1727;42.624;23.406;2023-02-11T02:32:48;96501.28;;;-3.25;70.09
3428;BME280;1727;42.624;23.406;2023-02-11T02:35:28;96502.16;;;-3.29;70.54
3428;BME280;1727;42.624;23.406;2023-02-11T02:38:00;96506.44;;;-3.30;70.03
3428;BME280;1727;42.624;23.406;2023-02-11T02:40:30;96503.88;;;-3.30;71.11
3428;BME280;1727;42.624;23.406;2023-02-11T02:42:58;96500.50;;;-3.36;70.83
3428;BME280;1727;42.624;23.406;2023-02-11T02:45:27;96503.94;;;-3.37;70.51
3428;BME280;1727;42.624;23.406;2023-02-11T02:47:55;96499.66;;;-3.40;70.39
3428;BME280;1727;42.624;23.406;2023-02-11T02:50:26;96501.41;;;-3.44;70.70
3428;BME280;1727;42.624;23.406;2023-02-11T02:53:04;96499.69;;;-3.46;70.41
3428;BME280;1727;42.624;23.406;2023-02-11T02:55:45;96505.66;;;-3.47;70.30
3428;BME280;1727;42.624;23.406;2023-02-11T02:58:32;96515.06;;;-3.43;70.20
3428;BME280;1727;42.624;23.406;2023-02-11T03:01:07;96504.81;;;-3.43;69.88
3428;BME280;1727;42.624;23.406;2023-02-11T03:03:46;96510.78;;;-3.41;69.73
3428;BME280;1727;42.624;23.406;2023-02-11T03:06:22;96509.06;;;-3.36;69.61
3428;BME280;1727;42.624;23.406;2023-02-11T03:08:55;96515.88;;;-3.32;69.56
3428;BME280;1727;42.624;23.406;2023-02-11T03:11:23;96511.63;;;-3.39;69.93
3428;BME280;1727;42.624;23.406;2023-02-11T03:13:51;96511.66;;;-3.42;69.76
3428;BME280;1727;42.624;23.406;2023-02-11T03:16:22;96503.94;;;-3.39;69.52
3428;BME280;1727;42.624;23.406;2023-02-11T03:18:57;96506.50;;;-3.39;68.83
3428;BME280;1727;42.624;23.406;2023-02-11T03:21:24;96510.81;;;-3.42;69.89
3428;BME280;1727;42.624;23.406;2023-02-11T03:23:54;96517.66;;;-3.45;69.97
3428;BME280;1727;42.624;23.406;2023-02-11T03:26:25;96510.84;;;-3.55;69.96
3428;BME280;1727;42.624;23.406;2023-02-11T03:28:57;96504.00;;;-3.56;70.03
3428;BME280;1727;42.624;23.406;2023-02-11T03:31:29;96500.56;;;-3.55;70.38
3428;BME280;1727;42.624;23.406;2023-02-11T03:34:02;96505.75;;;-3.62;69.78
3428;BME280;1727;42.624;23.406;2023-02-11T03:36:35;96501.50;;;-3.69;69.97
3428;BME280;1727;42.624;23.406;2023-02-11T03:39:07;96504.09;;;-3.76;69.94
3428;BME280;1727;42.624;23.406;2023-02-11T03:41:36;96504.91;;;-3.77;69.99
3428;BME280;1727;42.624;23.406;2023-02-11T03:44:05;96497.22;;;-3.78;70.48
3428;BME280;1727;42.624;23.406;2023-02-11T03:46:36;96507.50;;;-3.81;70.33
3428;BME280;1727;42.624;23.406;2023-02-11T03:49:09;96502.41;;;-3.89;70.15
3428;BME280;1727;42.624;23.406;2023-02-11T03:51:38;96506.66;;;-3.82;70.79
3428;BME280;1727;42.624;23.406;2023-02-11T03:54:10;96509.19;;;-3.79;70.46
3428;BME280;1727;42.624;23.406;2023-02-11T03:56:43;96503.25;;;-3.84;70.64
3428;BME280;1727;42.624;23.406;2023-02-11T03:59:12;96496.41;;;-3.82;70.67
3428;BME280;1727;42.624;23.406;2023-02-11T04:01:39;96494.69;;;-3.83;70.19
3428;BME280;1727;42.624;23.406;2023-02-11T04:04:07;96494.69;;;-3.83;70.43
3428;BME280;1727;42.624;23.406;2023-02-11T04:06:34;96495.56;;;-3.84;69.96
3428;BME280;1727;42.624;23.406;2023-02-11T04:09:01;96502.38;;;-3.84;70.02
3428;BME280;1727;42.624;23.406;2023-02-11T04:11:28;96506.66;;;-3.86;70.06
3428;BME280;1727;42.624;23.406;2023-02-11T04:13:54;96504.13;;;-3.89;69.84
3428;BME280;1727;42.624;23.406;2023-02-11T04:16:21;96504.97;;;-3.92;69.81
3428;BME280;1727;42.624;23.406;2023-02-11T04:18:48;96505.84;;;-3.91;69.65
3428;BME280;1727;42.624;23.406;2023-02-11T04:21:16;96509.25;;;-3.91;69.40
3428;BME280;1727;42.624;23.406;2023-02-11T04:23:43;96506.69;;;-3.91;69.17
3428;BME280;1727;42.624;23.406;2023-02-11T04:26:10;96504.97;;;-3.92;69.51
3428;BME280;1727;42.624;23.406;2023-02-11T04:28:36;96502.44;;;-3.93;69.71
3428;BME280;1727;42.624;23.406;2023-02-11T04:31:03;96501.53;;;-3.86;71.42
3428;BME280;1727;42.624;23.406;2023-02-11T04:33:30;96505.78;;;-3.79;71.57
3428;BME280;1727;42.624;23.406;2023-02-11T04:35:57;96500.66;;;-3.70;72.31
3428;BME280;1727;42.624;23.406;2023-02-11T04:38:25;96494.66;;;-3.70;70.56
3428;BME280;1727;42.624;23.406;2023-02-11T04:40:52;96498.06;;;-3.76;69.43
3428;BME280;1727;42.624;23.406;2023-02-11T04:43:19;96497.25;;;-3.84;69.13
3428;BME280;1727;42.624;23.406;2023-02-11T04:45:45;96500.69;;;-3.84;68.99
3428;BME280;1727;42.624;23.406;2023-02-11T04:48:12;96496.44;;;-3.91;69.35
3428;BME280;1727;42.624;23.406;2023-02-11T04:50:39;96492.19;;;-3.98;70.60
3428;BME280;1727;42.624;23.406;2023-02-11T04:53:06;96493.91;;;-4.00;70.88
3428;BME280;1727;42.624;23.406;2023-02-11T04:55:35;96499.03;;;-4.06;70.73
3428;BME280;1727;42.624;23.406;2023-02-11T04:58:01;96490.50;;;-4.11;70.82
3428;BME280;1727;42.624;23.406;2023-02-11T05:00:28;96487.09;;;-4.15;70.49
3428;BME280;1727;42.624;23.406;2023-02-11T05:02:55;96489.69;;;-4.27;70.13
3428;BME280;1727;42.624;23.406;2023-02-11T05:05:22;96496.50;;;-4.37;70.39
3428;BME280;1727;42.624;23.406;2023-02-11T05:07:48;96491.41;;;-4.46;70.79
3428;BME280;1727;42.624;23.406;2023-02-11T05:10:15;96483.75;;;-4.52;71.02
3428;BME280;1727;42.624;23.406;2023-02-11T05:12:46;96492.28;;;-4.51;70.83
3428;BME280;1727;42.624;23.406;2023-02-11T05:15:13;96488.00;;;-4.49;70.51
3428;BME280;1727;42.624;23.406;2023-02-11T05:17:40;96484.59;;;-4.47;70.72
3428;BME280;1727;42.624;23.406;2023-02-11T05:20:08;96482.00;;;-4.45;70.62
3428;BME280;1727;42.624;23.406;2023-02-11T05:22:35;96476.91;;;-4.45;70.82
3428;BME280;1727;42.624;23.406;2023-02-11T05:25:02;96470.06;;;-4.46;70.72
3428;BME280;1727;42.624;23.406;2023-02-11T05:27:29;96479.44;;;-4.42;70.81
3428;BME280;1727;42.624;23.406;2023-02-11T05:29:57;96473.47;;;-4.40;70.49
3428;BME280;1727;42.624;23.406;2023-02-11T05:32:24;96489.69;;;-4.34;70.52
3428;BME280;1727;42.624;23.406;2023-02-11T05:34:50;96481.16;;;-4.30;70.03
3428;BME280;1727;42.624;23.406;2023-02-11T05:37:20;96486.25;;;-4.23;69.88
3428;BME280;1727;42.624;23.406;2023-02-11T05:39:47;96483.69;;;-4.21;69.28
3428;BME280;1727;42.624;23.406;2023-02-11T05:42:13;96481.13;;;-4.21;69.21
3428;BME280;1727;42.624;23.406;2023-02-11T05:44:40;96487.09;;;-4.21;69.01
3428;BME280;1727;42.624;23.406;2023-02-11T05:47:08;96477.69;;;-4.02;69.65
3428;BME280;1727;42.624;23.406;2023-02-11T05:49:35;96481.69;;;-3.37;67.91
3428;BME280;1727;42.624;23.406;2023-02-11T05:52:02;96484.59;;;-2.57;65.20
3428;BME280;1727;42.624;23.406;2023-02-11T05:54:29;96484.63;;;-1.76;61.58
3428;BME280;1727;42.624;23.406;2023-02-11T05:56:56;96477.63;;;-0.99;59.38
3428;BME280;1727;42.624;23.406;2023-02-11T05:59:22;96480.53;;;-0.12;56.35
3428;BME280;1727;42.624;23.406;2023-02-11T06:01:49;96474.00;;;0.61;53.64
3428;BME280;1727;42.624;23.406;2023-02-11T06:04:20;96482.88;;;1.27;51.18
3428;BME280;1727;42.624;23.406;2023-02-11T06:06:47;96487.22;;;1.96;49.03
3428;BME280;1727;42.624;23.406;2023-02-11T06:09:14;96485.31;;;2.36;47.93
3428;BME280;1727;42.624;23.406;2023-02-11T06:11:40;96485.22;;;2.70;46.45
3428;BME280;1727;42.624;23.406;2023-02-11T06:14:07;96488.53;;;3.05;46.56
3428;BME280;1727;42.624;23.406;2023-02-11T06:16:34;96489.09;;;3.15;45.14
3428;BME280;1727;42.624;23.406;2023-02-11T06:19:01;96493.19;;;3.23;44.89
3428;BME280;1727;42.624;23.406;2023-02-11T06:21:29;96493.38;;;3.43;44.64
3428;BME280;1727;42.624;23.406;2023-02-11T06:23:56;96486.69;;;3.64;45.23
3428;BME280;1727;42.624;23.406;2023-02-11T06:26:22;96488.66;;;3.84;45.78
3428;BME280;1727;42.624;23.406;2023-02-11T06:28:49;96492.19;;;4.08;44.69
3428;BME280;1727;42.624;23.406;2023-02-11T06:31:16;96486.22;;;4.29;42.47
3428;BME280;1727;42.624;23.406;2023-02-11T06:33:43;96489.84;;;4.25;42.31
3428;BME280;1727;42.624;23.406;2023-02-11T06:36:15;96478.28;;;4.09;43.65
3428;BME280;1727;42.624;23.406;2023-02-11T06:38:45;96488.63;;;4.11;44.18
3428;BME280;1727;42.624;23.406;2023-02-11T06:41:14;96487.94;;;4.06;43.69
3428;BME280;1727;42.624;23.406;2023-02-11T06:43:41;96486.44;;;3.98;44.04
3428;BME280;1727;42.624;23.406;2023-02-11T06:46:08;96481.97;;;4.02;42.23
3428;BME280;1727;42.624;23.406;2023-02-11T06:48:35;96485.28;;;4.07;41.01
3428;BME280;1727;42.624;23.406;2023-02-11T06:51:04;96494.47;;;3.91;42.38
3428;BME280;1727;42.624;23.406;2023-02-11T06:53:33;96493.25;;;3.76;42.11
3428;BME280;1727;42.624;23.406;2023-02-11T06:56:03;96493.63;;;3.64;42.54
3428;BME280;1727;42.624;23.406;2023-02-11T06:58:30;96498.47;;;3.47;43.01
3428;BME280;1727;42.624;23.406;2023-02-11T07:00:57;96491.75;;;3.41;43.54
3428;BME280;1727;42.624;23.406;2023-02-11T07:03:24;96502.16;;;3.11;43.68
3428;BME280;1727;42.624;23.406;2023-02-11T07:05:51;96494.69;;;3.01;44.74
3428;BME280;1727;42.624;23.406;2023-02-11T07:08:17;96499.03;;;3.00;44.47
3428;BME280;1727;42.624;23.406;2023-02-11T07:10:44;96488.81;;;2.96;45.14
3428;BME280;1727;42.624;23.406;2023-02-11T07:13:12;96493.16;;;2.95;44.92
3428;BME280;1727;42.624;23.406;2023-02-11T07:15:39;96485.56;;;2.89;45.17
3428;BME280;1727;42.624;23.406;2023-02-11T07:18:06;96494.94;;;2.93;45.68
3428;BME280;1727;42.624;23.406;2023-02-11T07:20:32;96487.97;;;2.95;46.77
3428;BME280;1727;42.624;23.406;2023-02-11T07:22:59;96487.16;;;2.93;46.07
3428;BME280;1727;42.624;23.406;2023-02-11T07:25:26;96473.41;;;2.91;47.15
3428;BME280;1727;42.624;23.406;2023-02-11T07:27:53;96469.31;;;2.83;47.10
3428;BME280;1727;42.624;23.406;2023-02-11T07:30:24;96470.56;;;2.69;47.88
3428;BME280;1727;42.624;23.406;2023-02-11T07:32:51;96470.84;;;2.59;47.21
3428;BME280;1727;42.624;23.406;2023-02-11T07:35:18;96468.56;;;2.48;48.45
3428;BME280;1727;42.624;23.406;2023-02-11T07:37:44;96470.50;;;2.41;48.59
3428;BME280;1727;42.624;23.406;2023-02-11T07:40:11;96464.63;;;2.35;48.79
3428;BME280;1727;42.624;23.406;2023-02-11T07:42:38;96466.88;;;2.16;50.48
3428;BME280;1727;42.624;23.406;2023-02-11T07:45:06;96455.91;;;2.06;50.36
3428;BME280;1727;42.624;23.406;2023-02-11T07:47:35;96455.16;;;2.01;50.30
3428;BME280;1727;42.624;23.406;2023-02-11T07:50:02;96454.81;;;1.82;50.99
3428;BME280;1727;42.624;23.406;2023-02-11T07:52:29;96459.47;;;1.68;51.81
3428;BME280;1727;42.624;23.406;2023-02-11T07:54:56;96457.16;;;1.58;52.19
3428;BME280;1727;42.624;23.406;2023-02-11T07:57:23;96449.81;;;1.39;52.16
3428;BME280;1727;42.624;23.406;2023-02-11T07:59:59;96456.63;;;1.06;53.83
3428;BME280;1727;42.624;23.406;2023-02-11T08:02:37;96450.72;;;1.01;55.01
3428;BME280;1727;42.624;23.406;2023-02-11T08:05:04;96445.72;;;0.93;55.41
3428;BME280;1727;42.624;23.406;2023-02-11T08:07:31;96442.25;;;0.95;56.07
3428;BME280;1727;42.624;23.406;2023-02-11T08:09:58;96448.41;;;0.89;56.77
3428;BME280;1727;42.624;23.406;2023-02-11T08:12:25;96446.81;;;0.82;57.20
3428;BME280;1727;42.624;23.406;2023-02-11T08:14:52;96446.13;;;0.75;57.60
3428;BME280;1727;42.624;23.406;2023-02-11T08:17:18;96437.38;;;0.81;58.21
3428;BME280;1727;42.624;23.406;2023-02-11T08:19:46;96437.38;;;0.81;57.89
3428;BME280;1727;42.624;23.406;2023-02-11T08:22:13;96444.25;;;0.82;59.93
3428;BME280;1727;42.624;23.406;2023-02-11T08:24:40;96436.56;;;0.79;57.22
3428;BME280;1727;42.624;23.406;2023-02-11T08:27:07;96431.28;;;0.83;58.57
3428;BME280;1727;42.624;23.406;2023-02-11T08:29:35;96439.81;;;0.88;57.62
3428;BME280;1727;42.624;23.406;2023-02-11T08:32:01;96444.19;;;0.85;57.30
3428;BME280;1727;42.624;23.406;2023-02-11T08:34:28;96439.72;;;0.93;58.66
3428;BME280;1727;42.624;23.406;2023-02-11T08:36:56;96440.59;;;0.92;57.45
3428;BME280;1727;42.624;23.406;2023-02-11T08:39:23;96448.94;;;1.03;57.83
3428;BME280;1727;42.624;23.406;2023-02-11T08:41:51;96444.63;;;1.04;57.82
3428;BME280;1727;42.624;23.406;2023-02-11T08:44:20;96440.78;;;0.83;57.94
3428;BME280;1727;42.624;23.406;2023-02-11T08:46:47;96440.72;;;0.86;57.74
3428;BME280;1727;42.624;23.406;2023-02-11T08:49:14;96444.78;;;0.98;58.50
3428;BME280;1727;42.624;23.406;2023-02-11T08:51:42;96447.88;;;1.12;57.71
3428;BME280;1727;42.624;23.406;2023-02-11T08:54:11;96437.13;;;1.30;58.17
3428;BME280;1727;42.624;23.406;2023-02-11T08:56:38;96436.44;;;1.58;57.84
3428;BME280;1727;42.624;23.406;2023-02-11T08:59:05;96431.72;;;1.75;59.11
3428;BME280;1727;42.624;23.406;2023-02-11T09:01:33;96429.59;;;1.89;54.92
3428;BME280;1727;42.624;23.406;2023-02-11T09:04:00;96443.91;;;2.02;55.73
3428;BME280;1727;42.624;23.406;2023-02-11T09:06:27;96436.34;;;2.27;55.43
3428;BME280;1727;42.624;23.406;2023-02-11T09:08:55;96434.66;;;2.56;54.54
3428;BME280;1727;42.624;23.406;2023-02-11T09:11:28;96423.97;;;2.68;54.73
3428;BME280;1727;42.624;23.406;2023-02-11T09:14:01;96437.53;;;2.76;52.30
3428;BME280;1727;42.624;23.406;2023-02-11T09:16:29;96429.19;;;2.96;51.72
3428;BME280;1727;42.624;23.406;2023-02-11T09:18:58;96422.19;;;2.98;53.22
3428;BME280;1727;42.624;23.406;2023-02-11T09:21:29;96420.13;;;3.09;51.70
3428;BME280;1727;42.624;23.406;2023-02-11T09:23:56;96421.81;;;3.10;51.28
3428;BME280;1727;42.624;23.406;2023-02-11T09:26:27;96428.22;;;2.98;51.49
3428;BME280;1727;42.624;23.406;2023-02-11T09:28:54;96427.06;;;2.79;51.02
3428;BME280;1727;42.624;23.406;2023-02-11T09:31:22;96417.38;;;2.86;51.42
3428;BME280;1727;42.624;23.406;2023-02-11T09:33:52;96410.78;;;2.75;52.25
3428;BME280;1727;42.624;23.406;2023-02-11T09:36:20;96408.94;;;2.79;52.22
3428;BME280;1727;42.624;23.406;2023-02-11T09:38:48;96413.22;;;2.80;54.30
3428;BME280;1727;42.624;23.406;2023-02-11T09:41:26;96404.09;;;2.96;54.52
3428;BME280;1727;42.624;23.406;2023-02-11T09:44:00;96401.22;;;3.05;53.20
3428;BME280;1727;42.624;23.406;2023-02-11T09:46:31;96397.31;;;2.92;51.80
3428;BME280;1727;42.624;23.406;2023-02-11T09:49:00;96386.84;;;2.95;52.82
3428;BME280;1727;42.624;23.406;2023-02-11T09:51:36;96386.09;;;2.92;51.93
3428;BME280;1727;42.624;23.406;2023-02-11T09:54:11;96389.75;;;2.85;52.53
3428;BME280;1727;42.624;23.406;2023-02-11T09:56:40;96379.88;;;2.97;52.75
3428;BME280;1727;42.624;23.406;2023-02-11T09:59:09;96372.59;;;3.08;52.63
3428;BME280;1727;42.624;23.406;2023-02-11T10:01:44;96372.38;;;3.15;51.95
3428;BME280;1727;42.624;23.406;2023-02-11T10:04:17;96361.31;;;3.36;52.64
3428;BME280;1727;42.624;23.406;2023-02-11T10:06:51;96356.59;;;3.49;52.03
3428;BME280;1727;42.624;23.406;2023-02-11T10:09:44;96348.94;;;3.44;51.91
3428;BME280;1727;42.624;23.406;2023-02-11T10:12:27;96340.44;;;3.65;53.13
3428;BME280;1727;42.624;23.406;2023-02-11T10:15:08;96342.69;;;3.74;52.41
3428;BME280;1727;42.624;23.406;2023-02-11T10:17:48;96340.38;;;3.92;50.66
3428;BME280;1727;42.624;23.406;2023-02-11T10:20:24;96327.16;;;3.98;49.76
3428;BME280;1727;42.624;23.406;2023-02-11T10:22:56;96322.31;;;3.89;48.90
3428;BME280;1727;42.624;23.406;2023-02-11T10:25:25;96321.63;;;3.84;50.55
3428;BME280;1727;42.624;23.406;2023-02-11T10:27:57;96312.16;;;3.83;50.34
3428;BME280;1727;42.624;23.406;2023-02-11T10:30:29;96306.28;;;3.78;50.89
3428;BME280;1727;42.624;23.406;2023-02-11T10:33:00;96298.03;;;3.90;50.86
3428;BME280;1727;42.624;23.406;2023-02-11T10:35:28;96290.63;;;4.02;50.30
3428;BME280;1727;42.624;23.406;2023-02-11T10:37:55;96277.28;;;4.13;49.96
3428;BME280;1727;42.624;23.406;2023-02-11T10:40:24;96264.09;;;4.18;48.93
3428;BME280;1727;42.624;23.406;2023-02-11T10:42:56;96264.47;;;4.30;49.54
3428;BME280;1727;42.624;23.406;2023-02-11T10:45:29;96262.44;;;4.39;49.07
3428;BME280;1727;42.624;23.406;2023-02-11T10:47:57;96254.19;;;4.27;48.48
3428;BME280;1727;42.624;23.406;2023-02-11T10:50:27;96250.69;;;4.07;48.08
3428;BME280;1727;42.624;23.406;2023-02-11T10:53:11;96246.66;;;3.98;49.03
3428;BME280;1727;42.624;23.406;2023-02-11T10:55:38;96241.13;;;4.07;48.28
3428;BME280;1727;42.624;23.406;2023-02-11T10:58:23;96235.81;;;4.10;48.02
3428;BME280;1727;42.624;23.406;2023-02-11T11:00:51;96224.66;;;4.08;48.37
3428;BME280;1727;42.624;23.406;2023-02-11T11:03:20;96226.34;;;3.86;48.60
3428;BME280;1727;42.624;23.406;2023-02-11T11:05:50;96229.00;;;3.84;48.76
3428;BME280;1727;42.624;23.406;2023-02-11T11:08:18;96229.38;;;3.73;48.44
3428;BME280;1727;42.624;23.406;2023-02-11T11:10:47;96223.75;;;3.86;47.29
3428;BME280;1727;42.624;23.406;2023-02-11T11:13:28;96223.47;;;3.93;48.62
3428;BME280;1727;42.624;23.406;2023-02-11T11:16:18;96223.81;;;4.08;47.35
3428;BME280;1727;42.624;23.406;2023-02-11T11:18:47;96224.06;;;4.00;45.76
3428;BME280;1727;42.624;23.406;2023-02-11T11:21:17;96217.31;;;3.96;46.08
3428;BME280;1727;42.624;23.406;2023-02-11T11:23:50;96209.63;;;3.93;46.38
3428;BME280;1727;42.624;23.406;2023-02-11T11:26:18;96203.72;;;3.89;46.41
3428;BME280;1727;42.624;23.406;2023-02-11T11:29:01;96202.56;;;3.96;45.88
3428;BME280;1727;42.624;23.406;2023-02-11T11:31:35;96201.34;;;4.07;46.81
3428;BME280;1727;42.624;23.406;2023-02-11T11:34:19;96209.72;;;4.13;46.92
3428;BME280;1727;42.624;23.406;2023-02-11T11:36:48;96209.50;;;4.19;46.74
3428;BME280;1727;42.624;23.406;2023-02-11T11:39:26;96198.59;;;4.31;46.42
3428;BME280;1727;42.624;23.406;2023-02-11T11:41:57;96196.06;;;4.30;45.44
3428;BME280;1727;42.624;23.406;2023-02-11T11:44:30;96189.38;;;4.24;45.75
3428;BME280;1727;42.624;23.406;2023-02-11T11:47:23;96187.16;;;4.37;44.70
3428;BME280;1727;42.624;23.406;2023-02-11T11:50:08;96184.72;;;4.54;46.28
3428;BME280;1727;42.624;23.406;2023-02-11T11:52:43;96183.50;;;4.63;45.52
3428;BME280;1727;42.624;23.406;2023-02-11T11:55:16;96182.63;;;4.62;44.40
3428;BME280;1727;42.624;23.406;2023-02-11T11:57:44;96181.69;;;4.65;45.92
3428;BME280;1727;42.624;23.406;2023-02-11T12:00:18;96173.22;;;4.60;44.86
3428;BME280;1727;42.624;23.406;2023-02-11T12:03:11;96161.00;;;4.62;45.04
3428;BME280;1727;42.624;23.406;2023-02-11T12:05:46;96154.94;;;4.61;45.12
3428;BME280;1727;42.624;23.406;2023-02-11T12:08:20;96156.75;;;4.59;46.22
3428;BME280;1727;42.624;23.406;2023-02-11T12:11:00;96150.44;;;4.66;45.68
3428;BME280;1727;42.624;23.406;2023-02-11T12:13:41;96151.56;;;4.59;45.12
3428;BME280;1727;42.624;23.406;2023-02-11T12:16:20;96151.06;;;4.72;46.00
3428;BME280;1727;42.624;23.406;2023-02-11T12:22:09;96139.16;;;4.86;46.62
3428;BME280;1727;42.624;23.406;2023-02-11T12:27:42;96137.97;;;4.95;45.70
3428;BME280;1727;42.624;23.406;2023-02-11T12:33:11;96117.38;;;4.89;44.38
3428;BME280;1727;42.624;23.406;2023-02-11T12:35:47;96116.53;;;4.88;45.62
3428;BME280;1727;42.624;23.406;2023-02-11T12:38:31;96115.56;;;4.91;46.25
3428;BME280;1727;42.624;23.406;2023-02-11T12:41:13;96104.09;;;4.96;45.89
3428;BME280;1727;42.624;23.406;2023-02-11T12:44:06;96104.22;;;4.93;46.75
3428;BME280;1727;42.624;23.406;2023-02-11T12:46:40;96104.22;;;4.93;47.50
3428;BME280;1727;42.624;23.406;2023-02-11T12:49:31;96102.13;;;5.02;46.76
3428;BME280;1727;42.624;23.406;2023-02-11T12:52:19;96105.44;;;5.05;46.61
3428;BME280;1727;42.624;23.406;2023-02-11T12:54:53;96092.22;;;5.10;46.10
3428;BME280;1727;42.624;23.406;2023-02-11T12:57:22;96098.97;;;5.14;44.94
3428;BME280;1727;42.624;23.406;2023-02-11T12:59:55;96084.84;;;5.19;45.49
3428;BME280;1727;42.624;23.406;2023-02-11T13:02:31;96081.22;;;5.23;45.23
3428;BME280;1727;42.624;23.406;2023-02-11T13:05:03;96083.47;;;5.31;45.59
3428;BME280;1727;42.624;23.406;2023-02-11T13:07:35;96083.38;;;5.33;44.42
3428;BME280;1727;42.624;23.406;2023-02-11T13:10:15;96081.34;;;5.39;43.48
3428;BME280;1727;42.624;23.406;2023-02-11T13:12:47;96077.13;;;5.37;41.70
3428;BME280;1727;42.624;23.406;2023-02-11T13:15:32;96072.22;;;5.31;41.24
3428;BME280;1727;42.624;23.406;2023-02-11T13:18:02;96076.84;;;5.24;43.05
3428;BME280;1727;42.624;23.406;2023-02-11T13:20:39;96073.25;;;5.26;42.88
3428;BME280;1727;42.624;23.406;2023-02-11T13:23:14;96080.16;;;5.27;42.30
3428;BME280;1727;42.624;23.406;2023-02-11T13:25:47;96067.59;;;5.17;42.77
3428;BME280;1727;42.624;23.406;2023-02-11T13:28:28;96063.25;;;5.17;43.26
3428;BME280;1727;42.624;23.406;2023-02-11T13:31:00;96057.66;;;5.26;43.26
3428;BME280;1727;42.624;23.406;2023-02-11T13:33:32;96067.91;;;5.29;43.60
3428;BME280;1727;42.624;23.406;2023-02-11T13:36:16;96070.81;;;5.23;43.18
3428;BME280;1727;42.624;23.406;2023-02-11T13:39:02;96063.13;;;5.20;42.31
3428;BME280;1727;42.624;23.406;2023-02-11T13:41:32;96057.78;;;5.23;42.42
3428;BME280;1727;42.624;23.406;2023-02-11T13:44:02;96062.16;;;5.23;42.86
3428;BME280;1727;42.624;23.406;2023-02-11T13:46:48;96055.59;;;5.33;43.16
3428;BME280;1727;42.624;23.406;2023-02-11T13:49:20;96058.78;;;5.40;41.68
3428;BME280;1727;42.624;23.406;2023-02-11T13:51:50;96056.31;;;5.37;42.17
3428;BME280;1727;42.624;23.406;2023-02-11T13:54:22;96054.47;;;5.39;43.54